KSPG/SPG METAR and TAF weather

Enter ICAO airport designator
Station Type Date Time Source
KSPG METAR 2019/08/22 20:53 UTC NOAA

KSPG 222053Z 10004KT 10SM CLR 33/22 A2996 RMK AO2 SLP145 T03330222 56025


Station Type Date Time Source
KSPG Decoded METAR 2019/08/22 20:53 UTC NOAA

Station name not available
Aug 22, 2019 - 04:53 PM EDT / 2019.08.22 2053 UTC
Wind: from the E (100 degrees) at 5 MPH (4 KT):0
Visibility: 10 mile(s):0
Sky conditions: clear
Temperature: 91.9 F (33.3 C)
Heat index: 99.5 F (37.5 C):1
Dew Point: 72.0 F (22.2 C)
Relative Humidity: 52%
Pressure (altimeter): 29.96 in. Hg (1014 hPa)
Pressure tendency: 0.07 inches (2.5 hPa) lower than three hours ago
ob: KSPG 222053Z 10004KT 10SM CLR 33/22 A2996 RMK AO2 SLP145 T03330222 56025
cycle: 21

Station Type Date Time Source
KSPG TAF UTC NOAA

Error!

Example: see airport list